East Pitcairn, New York
Current Conditions -  °F | °C
As of 4:58 AM on Tuesday 27 Jan 2015 (Local Time) from KGTB Reporting Station
Clear Clear  
Wind Chill: -17°   Ceiling: Unl
Heat Index:   Visibility: 10mi
Dew Point: -8°   Wind: 12mph
Humidity: 70%   Direction: 40°NE
Pressure: 29.95"   Gusts: NA
Location:  44.1447°N, 75.2952°W
Report Text: KGTB 270958Z AUTO 04010KT 10SM CLR M18/M22 A2995 RMK AO2 SLP159 T11781221
Loading
Personal Weather Stations






























Interactive Weather Map New forecast layout! Learn more

10-Day Weather Forecast

Advertisements
Track Severe Weather on mobile